Terminal Aerodrome Forecast
Issued by NWS

Home | Current Version | Previous Version | Text Only | Print | Product List | Glossary On
Versions: 1 2 3 4 5 6 7 8 9 10 11 12 13 14 15
000
FTUS45 KABQ 180500
TAFTCC
TAF
KTCC 180524Z 1806/1906 28008KT P6SM FEW120
     FM181700 25015G25KT P6SM BKN100
     FM182100 28016G28KT P6SM BKN120
     FM190300 01008KT P6SM SCT120=

USA.gov is the U.S. government's official web portal to all federal, state and local government web resources and services.